createdAt,value
2017-08-16T00:00:36.715Z,80.43
2017-08-16T00:10:58.916Z,80.98
2017-08-16T00:21:21.508Z,81.43
2017-08-16T00:31:44.609Z,81.22
2017-08-16T00:47:29.956Z,81.62
2017-08-16T00:57:52.663Z,81.35
2017-08-16T01:08:14.549Z,80.26
2017-08-16T01:18:36.130Z,80.89
2017-08-16T01:29:00.501Z,80.79
2017-08-16T01:39:23.121Z,80.90
2017-08-16T01:49:45.151Z,80.83
2017-08-16T02:00:08.543Z,80.24
2017-08-16T02:10:30.411Z,80.25
2017-08-16T02:20:52.308Z,80.79
2017-08-16T02:31:15.052Z,81.75
2017-08-16T02:36:20.855Z,81.98
2017-08-16T02:46:47.484Z,81.76
2017-08-16T02:57:08.971Z,82.28
2017-08-16T03:07:31.313Z,81.38
2017-08-16T03:17:53.329Z,82.84
2017-08-16T03:28:15.626Z,82.22
2017-08-16T03:33:22.120Z,82.98
2017-08-16T03:49:05.447Z,82.45
2017-08-16T03:59:30.310Z,83.11
2017-08-16T04:09:51.645Z,83.08
2017-08-16T04:20:14.587Z,82.67
2017-08-16T04:30:36.959Z,82.47
2017-08-16T04:40:58.780Z,82.89
2017-08-16T04:51:20.725Z,82.92
2017-08-16T05:01:43.073Z,82.56
2017-08-16T05:12:05.685Z,82.63
2017-08-16T05:22:27.725Z,82.05
2017-08-16T05:32:49.047Z,82.77
2017-08-16T05:48:28.686Z,82.49
2017-08-16T05:58:51.356Z,82.72
2017-08-16T06:09:18.964Z,82.08
2017-08-16T06:19:42.477Z,81.79
2017-08-16T06:30:04.616Z,82.50
2017-08-16T06:45:44.226Z,79.34
2017-08-16T06:56:10.293Z,78.56
2017-08-16T07:06:35.958Z,78.72
2017-08-16T07:16:58.093Z,77.56
2017-08-16T07:27:25.119Z,75.41
2017-08-16T07:37:48.458Z,74.71
2017-08-16T07:48:10.445Z,76.30
2017-08-16T07:58:36.950Z,74.85
2017-08-16T08:09:00.817Z,73.17
2017-08-16T08:19:24.691Z,70.03
2017-08-16T08:29:58.651Z,70.07
2017-08-16T08:45:49.413Z,68.76
2017-08-16T08:56:25.011Z,70.48
2017-08-16T09:17:38.072Z,68.87
2017-08-16T09:28:04.674Z,69.54
2017-08-16T09:38:40.281Z,62.97
2017-08-16T09:49:02.267Z,64.81
2017-08-16T09:59:24.922Z,60.98
2017-08-16T10:09:47.075Z,64.37
2017-08-16T10:20:09.011Z,64.20
2017-08-16T10:25:14.819Z,62.70
2017-08-16T10:35:37.569Z,58.17
2017-08-16T10:46:01.750Z,57.77
2017-08-16T10:56:29.111Z,58.65
2017-08-16T11:06:53.463Z,55.86
2017-08-16T11:17:16.074Z,56.02
2017-08-16T11:27:40.443Z,56.39
2017-08-16T11:38:02.445Z,53.56
2017-08-16T11:48:24.477Z,52.05
2017-08-16T11:58:47.311Z,51.04
2017-08-16T12:09:09.316Z,48.58
2017-08-16T12:19:30.952Z,48.08
2017-08-16T12:29:53.043Z,50.21
2017-08-16T12:45:35.778Z,47.27
2017-08-16T12:55:57.595Z,49.07
2017-08-16T13:06:32.024Z,46.33
2017-08-16T13:16:53.730Z,46.39
2017-08-16T13:27:15.505Z,43.44
2017-08-16T13:37:37.116Z,41.47
2017-08-16T13:47:59.158Z,44.57
2017-08-16T13:58:21.447Z,41.06
2017-08-16T14:08:43.129Z,41.81
2017-08-16T14:19:05.235Z,40.44
2017-08-16T14:29:26.919Z,43.51
2017-08-16T14:39:48.512Z,39.87
2017-08-16T14:50:11.036Z,47.00
2017-08-16T15:00:33.874Z,43.67
2017-08-16T15:10:56.382Z,41.75
2017-08-16T15:21:18.477Z,49.81
2017-08-16T15:31:40.964Z,40.58
2017-08-16T16:03:08.229Z,49.54
2017-08-16T16:13:30.904Z,53.56
2017-08-16T16:23:52.901Z,47.51
2017-08-16T16:34:20.254Z,50.63
2017-08-16T16:44:44.824Z,56.10
2017-08-16T16:55:08.133Z,56.27
2017-08-16T17:05:31.377Z,58.50
2017-08-16T17:15:53.311Z,60.51
2017-08-16T17:26:16.406Z,62.01
2017-08-16T17:36:40.814Z,63.65
2017-08-16T17:47:04.294Z,63.33
2017-08-16T17:57:29.338Z,64.79
2017-08-16T18:07:52.386Z,65.98
2017-08-16T18:18:14.159Z,68.80
2017-08-16T18:28:36.081Z,67.57
2017-08-16T18:38:58.683Z,68.59
2017-08-16T18:49:19.182Z,71.44
2017-08-16T18:59:42.991Z,70.67
2017-08-16T19:10:05.778Z,71.88
2017-08-16T19:20:28.748Z,72.39
2017-08-16T19:25:34.623Z,74.02
2017-08-16T19:35:56.809Z,74.34
2017-08-16T19:46:19.657Z,74.31
2017-08-16T19:56:41.669Z,74.84
2017-08-16T20:07:03.688Z,74.96
2017-08-16T20:17:26.298Z,76.71
2017-08-16T20:27:48.327Z,75.23
2017-08-16T20:38:11.091Z,74.42
2017-08-16T20:48:33.123Z,74.16
2017-08-16T20:58:56.051Z,75.14
2017-08-16T21:09:18.104Z,75.21
2017-08-16T21:19:39.977Z,77.26
2017-08-16T21:30:02.702Z,73.80
2017-08-16T21:40:24.603Z,75.11
2017-08-16T21:56:03.299Z,72.06
2017-08-16T22:06:25.144Z,75.11
2017-08-16T22:16:47.107Z,73.12
2017-08-16T22:27:09.073Z,73.41
2017-08-16T22:37:32.499Z,75.82
2017-08-16T22:47:54.488Z,75.11
2017-08-16T22:58:16.654Z,74.19
2017-08-16T23:08:40.621Z,75.45
2017-08-16T23:19:06.625Z,74.44
2017-08-16T23:29:28.675Z,74.18
2017-08-16T23:39:52.053Z,74.17
2017-08-16T23:55:31.912Z,75.11
